createdAt,value
2023-04-16T00:02:41.758Z,100148.87
2023-04-16T00:05:44.491Z,100150.25
2023-04-16T00:08:46.863Z,100130.97
2023-04-16T00:11:49.541Z,100151.91
2023-04-16T00:14:51.869Z,100132.13
2023-04-16T00:17:54.519Z,100152.00
2023-04-16T00:20:56.837Z,100160.06
2023-04-16T00:23:59.538Z,100158.44
2023-04-16T00:27:02.092Z,100155.09
2023-04-16T00:30:07.911Z,100141.66
2023-04-16T00:33:10.332Z,100152.63
2023-04-16T00:36:13.025Z,100153.75
2023-04-16T00:39:15.655Z,100154.88
2023-04-16T00:42:18.384Z,100142.22
2023-04-16T00:45:20.685Z,100166.53
2023-04-16T00:48:23.835Z,100163.19
2023-04-16T00:51:27.098Z,100154.88
2023-04-16T00:54:31.906Z,100151.09
2023-04-16T00:57:34.192Z,100157.69
2023-04-16T01:00:36.806Z,100150.25
2023-04-16T01:03:44.288Z,100132.59
2023-04-16T01:06:46.993Z,100153.34
2023-04-16T01:09:49.610Z,100146.00
2023-04-16T01:12:52.251Z,100144.94
2023-04-16T01:15:54.650Z,100165.63
2023-04-16T01:18:57.570Z,100172.56
2023-04-16T01:22:00.284Z,100171.19
2023-04-16T01:25:03.110Z,100166.25
2023-04-16T01:28:06.471Z,100152.78
2023-04-16T01:31:09.130Z,100174.81
2023-04-16T01:34:12.949Z,100174.56
2023-04-16T01:37:15.787Z,100173.44
2023-04-16T01:40:18.931Z,100177.84
2023-04-16T01:43:21.548Z,100175.59
2023-04-16T01:46:29.072Z,100159.03
2023-04-16T01:49:31.815Z,100171.12
2023-04-16T01:52:34.143Z,100169.47
2023-04-16T01:55:36.801Z,100155.69
2023-04-16T01:58:39.821Z,100173.91
2023-04-16T02:01:43.369Z,100175.59
2023-04-16T02:04:46.600Z,100170.06
2023-04-16T02:07:49.056Z,100160.06
2023-04-16T02:10:52.482Z,100169.81
2023-04-16T02:13:55.070Z,100165.94
2023-04-16T02:16:58.174Z,100179.22
2023-04-16T02:20:03.325Z,100187.78
2023-04-16T02:23:06.270Z,100184.50
2023-04-16T02:26:08.615Z,100190.00
2023-04-16T02:29:12.335Z,100176.75
2023-04-16T02:32:15.464Z,100172.31
2023-04-16T02:35:18.874Z,100170.38
2023-04-16T02:38:21.182Z,100183.84
2023-04-16T02:41:23.888Z,100189.66
2023-04-16T02:44:26.247Z,100188.56
2023-04-16T02:47:28.962Z,100188.56
2023-04-16T02:50:31.436Z,100189.66
2023-04-16T02:53:34.325Z,100183.06
2023-04-16T02:56:36.765Z,100176.25
2023-04-16T02:59:39.356Z,100180.03
2023-04-16T03:02:42.652Z,100161.34
2023-04-16T03:05:45.640Z,100169.97
2023-04-16T03:08:47.972Z,100189.56
2023-04-16T03:11:51.095Z,100201.47
2023-04-16T03:14:53.485Z,100196.84
2023-04-16T03:17:56.313Z,100205.97
2023-04-16T03:20:58.765Z,100205.44
2023-04-16T03:24:01.845Z,100202.97
2023-04-16T03:27:04.390Z,100203.25
2023-04-16T03:30:08.545Z,100192.25
2023-04-16T03:33:11.642Z,100220.13
2023-04-16T03:36:15.889Z,100208.53
2023-04-16T03:39:18.453Z,100220.97
2023-04-16T03:42:21.593Z,100222.09
2023-04-16T03:45:23.969Z,100222.66
2023-04-16T03:48:26.734Z,100255.50
2023-04-16T03:51:29.358Z,100248.31
2023-04-16T03:54:32.448Z,100240.59
2023-04-16T03:57:37.825Z,100262.97
2023-04-16T04:00:42.934Z,100246.72
2023-04-16T04:03:46.124Z,100248.62
2023-04-16T04:06:48.839Z,100265.22
2023-04-16T04:09:51.597Z,100264.41
2023-04-16T04:12:54.121Z,100267.16
2023-04-16T04:15:56.895Z,100250.66
2023-04-16T04:19:00.378Z,100249.28
2023-04-16T04:22:03.680Z,100268.59
2023-04-16T04:25:06.625Z,100263.38
2023-04-16T04:28:09.247Z,100241.03
2023-04-16T04:31:11.786Z,100269.47
2023-04-16T04:34:15.664Z,100271.69
2023-04-16T04:37:18.057Z,100278.03
2023-04-16T04:40:21.055Z,100287.13
2023-04-16T04:43:24.022Z,100289.34
2023-04-16T04:46:26.670Z,100260.06
2023-04-16T04:49:30.506Z,100277.44
2023-04-16T04:52:33.180Z,100289.06
2023-04-16T04:55:37.499Z,100282.13
2023-04-16T04:58:41.185Z,100290.16
2023-04-16T05:01:43.606Z,100295.44
2023-04-16T05:04:46.291Z,100290.44
2023-04-16T05:07:48.617Z,100292.09
2023-04-16T05:10:51.203Z,100298.19
2023-04-16T05:13:53.604Z,100300.94
2023-04-16T05:16:56.597Z,100282.69
2023-04-16T05:20:00.359Z,100297.00
2023-04-16T05:23:03.285Z,100293.66
2023-04-16T05:26:05.601Z,100278.75
2023-04-16T05:29:11.435Z,100277.59
2023-04-16T05:32:14.022Z,100302.50
2023-04-16T05:35:17.614Z,100305.28
2023-04-16T05:38:20.248Z,100316.34
2023-04-16T05:41:22.960Z,100323.00
2023-04-16T05:44:26.052Z,100328.78
2023-04-16T05:47:28.712Z,100322.13
2023-04-16T05:50:31.184Z,100328.75
2023-04-16T05:53:33.818Z,100337.62
2023-04-16T05:56:36.201Z,100313.56
2023-04-16T05:59:38.788Z,100337.28
2023-04-16T06:02:41.405Z,100335.03
2023-04-16T06:05:44.715Z,100339.16
2023-04-16T06:08:47.081Z,100347.72
2023-04-16T06:11:49.691Z,100344.41
2023-04-16T06:14:52.093Z,100333.88
2023-04-16T06:17:55.861Z,100339.59
2023-04-16T06:21:00.979Z,100336.22
2023-04-16T06:24:03.760Z,100333.16
2023-04-16T06:27:06.162Z,100343.69
2023-04-16T06:30:13.575Z,100339.81
2023-04-16T06:33:16.329Z,100343.13
2023-04-16T06:36:18.989Z,100338.59
2023-04-16T06:39:21.916Z,100320.59
2023-04-16T06:42:24.521Z,100336.97
2023-04-16T06:45:26.915Z,100338.41
2023-04-16T06:48:30.010Z,100317.44
2023-04-16T06:51:32.679Z,100343.22
2023-04-16T06:54:35.548Z,100326.06
2023-04-16T06:57:37.896Z,100338.09
2023-04-16T07:00:42.823Z,100329.91
2023-04-16T07:03:45.675Z,100314.59
2023-04-16T07:06:48.458Z,100336.78
2023-04-16T07:09:50.952Z,100333.44
2023-04-16T07:12:53.636Z,100344.53
2023-04-16T07:15:56.002Z,100320.88
2023-04-16T07:18:58.714Z,100329.16
2023-04-16T07:22:01.340Z,100320.38
2023-04-16T07:25:04.393Z,100334.44
2023-04-16T07:28:06.682Z,100338.66
2023-04-16T07:31:09.420Z,100323.25
2023-04-16T07:34:12.124Z,100326.34
2023-04-16T07:37:14.740Z,100339.50
2023-04-16T07:40:17.191Z,100341.13
2023-04-16T07:43:19.790Z,100325.81
2023-04-16T07:46:22.157Z,100344.97
2023-04-16T07:49:24.914Z,100327.31
2023-04-16T07:52:27.224Z,100331.69
2023-04-16T07:55:29.832Z,100340.28
2023-04-16T07:58:32.183Z,100319.06
2023-04-16T08:01:34.906Z,100346.09
2023-04-16T08:04:37.842Z,100340.38
2023-04-16T08:07:40.311Z,100341.63
2023-04-16T08:10:42.916Z,100330.75
2023-04-16T08:13:45.409Z,100341.41
2023-04-16T08:16:48.019Z,100337.41
2023-04-16T08:19:50.408Z,100345.56
2023-04-16T08:22:54.897Z,100338.00
2023-04-16T08:25:57.515Z,100317.75
2023-04-16T08:29:00.352Z,100340.03
2023-04-16T08:32:02.838Z,100338.47
2023-04-16T08:35:06.035Z,100346.00
2023-04-16T08:38:08.299Z,100347.47
2023-04-16T08:41:13.455Z,100348.94
2023-04-16T08:44:27.845Z,100348.41
2023-04-16T08:47:34.461Z,100341.56
2023-04-16T08:50:37.319Z,100357.81
2023-04-16T08:53:51.989Z,100349.16
2023-04-16T08:56:55.804Z,100345.19
2023-04-16T08:59:59.663Z,100356.75
2023-04-16T09:03:03.298Z,100367.72
2023-04-16T09:06:07.545Z,100354.34
2023-04-16T09:09:12.668Z,100374.72
2023-04-16T09:12:15.737Z,100357.84
2023-04-16T09:15:20.984Z,100351.47
2023-04-16T09:18:24.480Z,100371.84
2023-04-16T09:21:28.033Z,100357.28
2023-04-16T09:24:31.617Z,100379.94
2023-04-16T09:27:33.937Z,100384.72
2023-04-16T09:30:37.604Z,100383.31
2023-04-16T09:33:40.510Z,100373.81
2023-04-16T09:36:43.079Z,100368.75
2023-04-16T09:39:54.020Z,100383.94
2023-04-16T09:43:00.702Z,100369.69
2023-04-16T09:46:08.104Z,100389.63
2023-04-16T09:49:15.529Z,100373.72
2023-04-16T09:52:22.990Z,100380.34
2023-04-16T09:55:27.771Z,100394.16
2023-04-16T09:58:30.329Z,100383.13
2023-04-16T10:01:33.036Z,100389.84
2023-04-16T10:04:49.594Z,100392.06
2023-04-16T10:07:52.758Z,100387.09
2023-04-16T10:10:56.401Z,100376.53
2023-04-16T10:13:58.827Z,100373.34
2023-04-16T10:17:02.390Z,100373.25
2023-04-16T10:20:07.227Z,100361.66
2023-04-16T10:23:10.385Z,100350.81
2023-04-16T10:26:13.658Z,100368.69
2023-04-16T10:29:16.711Z,100360.16
2023-04-16T10:32:21.940Z,100362.78
2023-04-16T10:35:25.789Z,100362.13
2023-04-16T10:38:28.525Z,100357.00
2023-04-16T10:41:33.701Z,100353.03
2023-04-16T10:44:36.585Z,100351.22
2023-04-16T10:47:40.708Z,100326.81
2023-04-16T10:50:43.203Z,100333.06
2023-04-16T10:53:45.843Z,100342.34
2023-04-16T10:56:48.141Z,100340.25
2023-04-16T10:59:50.721Z,100319.91
2023-04-16T11:02:54.397Z,100316.50
2023-04-16T11:06:12.090Z,100312.53
2023-04-16T11:09:49.825Z,100313.09
2023-04-16T11:12:54.636Z,100324.84
2023-04-16T11:15:58.402Z,100331.69
2023-04-16T11:19:01.372Z,100331.75
2023-04-16T11:22:04.284Z,100307.50
2023-04-16T11:25:07.275Z,100320.94
2023-04-16T11:28:09.586Z,100322.37
2023-04-16T11:31:12.741Z,100304.84
2023-04-16T11:34:16.811Z,100321.41
2023-04-16T11:37:35.542Z,100325.69
2023-04-16T11:40:37.959Z,100320.38
2023-04-16T11:43:40.559Z,100322.63
2023-04-16T11:46:42.975Z,100322.03
2023-04-16T11:49:45.613Z,100319.63
2023-04-16T11:52:49.128Z,100317.63
2023-04-16T11:55:51.822Z,100312.91
2023-04-16T11:59:16.615Z,100303.41
2023-04-16T12:02:37.749Z,100312.09
2023-04-16T12:05:40.838Z,100315.31
2023-04-16T12:08:43.393Z,100300.41
2023-04-16T12:11:46.561Z,100308.59
2023-04-16T12:14:52.038Z,100307.81
2023-04-16T12:18:08.169Z,100285.19
2023-04-16T12:21:10.814Z,100299.06
2023-04-16T12:24:15.466Z,100292.62
2023-04-16T12:27:17.771Z,100271.03
2023-04-16T12:30:22.874Z,100283.59
2023-04-16T12:33:25.387Z,100282.81
2023-04-16T12:36:28.110Z,100286.34
2023-04-16T12:39:30.596Z,100264.31
2023-04-16T12:42:37.376Z,100279.09
2023-04-16T12:45:40.493Z,100284.28
2023-04-16T12:48:43.669Z,100262.47
2023-04-16T12:51:46.905Z,100257.53
2023-04-16T12:54:49.601Z,100253.41
2023-04-16T12:57:55.678Z,100268.28
2023-04-16T13:00:58.751Z,100263.97
2023-04-16T13:04:01.217Z,100269.19
2023-04-16T13:07:04.004Z,100252.69
2023-04-16T13:10:07.201Z,100249.41
2023-04-16T13:13:09.876Z,100260.75
2023-04-16T13:16:12.696Z,100257.69
2023-04-16T13:19:15.984Z,100241.78
2023-04-16T13:22:18.429Z,100241.78
2023-04-16T13:25:21.131Z,100248.44
2023-04-16T13:28:23.571Z,100241.47
2023-04-16T13:31:26.707Z,100250.50
2023-04-16T13:34:29.227Z,100253.28
2023-04-16T13:37:31.831Z,100235.06
2023-04-16T13:40:34.172Z,100240.59
2023-04-16T13:43:37.335Z,100237.41
2023-04-16T13:46:39.844Z,100227.44
2023-04-16T13:49:42.696Z,100242.31
2023-04-16T13:52:44.990Z,100235.59
2023-04-16T13:55:49.518Z,100232.22
2023-04-16T13:58:52.277Z,100232.84
2023-04-16T14:01:55.101Z,100239.97
2023-04-16T14:04:57.816Z,100232.84
2023-04-16T14:08:00.391Z,100219.72
2023-04-16T14:11:03.053Z,100220.22
2023-04-16T14:14:05.486Z,100221.47
2023-04-16T14:17:08.120Z,100231.00
2023-04-16T14:20:12.608Z,100227.91
2023-04-16T14:23:15.186Z,100228.34
2023-04-16T14:26:17.577Z,100220.16
2023-04-16T14:29:20.258Z,100223.69
2023-04-16T14:32:23.298Z,100208.41
2023-04-16T14:35:26.549Z,100207.00
2023-04-16T14:38:28.971Z,100213.56
2023-04-16T14:41:31.722Z,100218.47
2023-04-16T14:44:34.132Z,100215.91
2023-04-16T14:47:38.473Z,100205.78
2023-04-16T14:50:43.946Z,100217.53
2023-04-16T14:53:46.895Z,100224.09
2023-04-16T14:56:50.032Z,100204.66
2023-04-16T14:59:52.620Z,100208.25
2023-04-16T15:02:55.681Z,100209.31
2023-04-16T15:05:59.341Z,100204.66
2023-04-16T15:09:01.962Z,100206.22
2023-04-16T15:12:04.758Z,100199.56
2023-04-16T15:15:08.141Z,100196.56
2023-04-16T15:18:10.952Z,100200.06
2023-04-16T15:21:13.618Z,100195.94
2023-04-16T15:24:16.254Z,100195.84
2023-04-16T15:27:19.433Z,100183.84
2023-04-16T15:30:22.072Z,100198.97
2023-04-16T15:33:24.892Z,100200.94
2023-04-16T15:36:27.541Z,100194.66
2023-04-16T15:39:31.573Z,100195.59
2023-04-16T15:42:34.775Z,100203.59
2023-04-16T15:45:37.562Z,100209.94
2023-04-16T15:48:40.232Z,100204.09
2023-04-16T15:51:42.610Z,100203.63
2023-04-16T15:54:45.839Z,100199.19
2023-04-16T15:57:48.259Z,100186.50
2023-04-16T16:00:50.895Z,100200.31
2023-04-16T16:03:53.912Z,100197.75
2023-04-16T16:06:56.685Z,100198.75
2023-04-16T16:09:59.593Z,100194.16
2023-04-16T16:13:07.354Z,100206.06
2023-04-16T16:16:10.006Z,100206.47
2023-04-16T16:19:12.587Z,100210.16
2023-04-16T16:22:16.024Z,100193.09
2023-04-16T16:25:18.819Z,100207.41
2023-04-16T16:28:21.590Z,100199.69
2023-04-16T16:31:24.537Z,100207.94
2023-04-16T16:34:28.207Z,100208.66
2023-04-16T16:37:30.527Z,100207.69
2023-04-16T16:40:33.310Z,100194.09
2023-04-16T16:43:36.776Z,100202.50
2023-04-16T16:46:39.538Z,100205.91
2023-04-16T16:49:41.926Z,100210.72
2023-04-16T16:52:44.832Z,100196.75
2023-04-16T16:55:47.236Z,100211.53
2023-04-16T16:58:49.894Z,100212.56
2023-04-16T17:01:52.295Z,100216.84
2023-04-16T17:04:55.045Z,100204.41
2023-04-16T17:07:57.431Z,100218.69
2023-04-16T17:11:03.556Z,100220.53
2023-04-16T17:14:06.027Z,100217.63
2023-04-16T17:17:08.908Z,100222.72
2023-04-16T17:20:12.567Z,100225.38
2023-04-16T17:23:15.639Z,100224.75
2023-04-16T17:26:17.957Z,100236.84
2023-04-16T17:29:25.804Z,100214.03
2023-04-16T17:32:29.686Z,100222.50
2023-04-16T17:35:32.406Z,100239.31
2023-04-16T17:38:34.799Z,100217.75
2023-04-16T17:41:37.452Z,100241.81
2023-04-16T17:44:39.771Z,100242.47
2023-04-16T17:47:42.494Z,100241.84
2023-04-16T17:50:44.824Z,100243.84
2023-04-16T17:53:47.626Z,100236.09
2023-04-16T17:56:49.933Z,100247.47
2023-04-16T17:59:52.768Z,100225.41
2023-04-16T18:02:56.752Z,100240.91
2023-04-16T18:05:59.984Z,100234.50
2023-04-16T18:09:04.816Z,100253.56
2023-04-16T18:12:08.044Z,100236.66
2023-04-16T18:15:10.740Z,100268.91
2023-04-16T18:18:13.501Z,100263.66
2023-04-16T18:21:15.836Z,100264.97
2023-04-16T18:24:18.416Z,100271.22
2023-04-16T18:27:21.597Z,100282.94
2023-04-16T18:30:26.634Z,100287.53
2023-04-16T18:33:49.991Z,100268.78
2023-04-16T18:36:52.277Z,100282.47
2023-04-16T18:39:57.784Z,100257.13
2023-04-16T18:43:00.697Z,100251.00
2023-04-16T18:46:03.094Z,100248.53
2023-04-16T18:49:05.969Z,100256.78
2023-04-16T18:52:08.768Z,100245.09
2023-04-16T18:55:11.362Z,100256.12
2023-04-16T18:58:13.742Z,100256.47
2023-04-16T19:01:16.535Z,100242.78
2023-04-16T19:04:19.522Z,100242.78
2023-04-16T19:07:22.264Z,100253.78
2023-04-16T19:10:24.636Z,100255.28
2023-04-16T19:13:27.399Z,100231.59
2023-04-16T19:16:29.814Z,100232.91
2023-04-16T19:19:32.469Z,100247.56
2023-04-16T19:22:34.778Z,100242.94
2023-04-16T19:25:37.479Z,100240.31
2023-04-16T19:28:40.007Z,100248.72
2023-04-16T19:31:42.713Z,100253.50
2023-04-16T19:34:45.106Z,100252.16
2023-04-16T19:37:50.523Z,100248.38
2023-04-16T19:40:52.981Z,100234.91
2023-04-16T19:43:55.691Z,100251.53
2023-04-16T19:46:58.925Z,100249.88
2023-04-16T19:50:07.899Z,100234.41
2023-04-16T19:53:11.332Z,100240.97
2023-04-16T19:56:15.908Z,100247.91
2023-04-16T19:59:18.371Z,100242.78
2023-04-16T20:02:21.072Z,100223.06
2023-04-16T20:05:26.424Z,100241.50
2023-04-16T20:08:28.744Z,100227.16
2023-04-16T20:11:31.418Z,100237.88
2023-04-16T20:14:33.725Z,100238.69
2023-04-16T20:17:36.373Z,100233.09
2023-04-16T20:20:38.736Z,100231.47
2023-04-16T20:23:41.426Z,100220.59
2023-04-16T20:26:43.769Z,100232.28
2023-04-16T20:29:46.469Z,100232.59
2023-04-16T20:32:48.956Z,100219.94
2023-04-16T20:35:52.274Z,100225.19
2023-04-16T20:38:54.708Z,100227.69
2023-04-16T20:41:57.321Z,100241.31
2023-04-16T20:45:00.710Z,100219.28
2023-04-16T20:48:03.845Z,100238.03
2023-04-16T20:51:10.306Z,100236.22
2023-04-16T20:54:13.100Z,100221.41
2023-04-16T20:57:15.588Z,100220.09
2023-04-16T21:00:18.413Z,100224.38
2023-04-16T21:03:21.577Z,100227.84
2023-04-16T21:06:24.319Z,100220.28
2023-04-16T21:09:27.124Z,100218.59
2023-04-16T21:12:29.840Z,100207.25
2023-04-16T21:15:32.774Z,100225.31
2023-04-16T21:18:36.891Z,100231.62
2023-04-16T21:21:39.632Z,100224.38
2023-04-16T21:24:42.265Z,100226.66
2023-04-16T21:27:44.641Z,100233.72
2023-04-16T21:30:51.770Z,100221.22
2023-04-16T21:33:54.116Z,100220.41
2023-04-16T21:36:56.679Z,100193.91
2023-04-16T21:39:59.120Z,100210.50
2023-04-16T21:43:01.714Z,100196.50
2023-04-16T21:46:04.107Z,100208.22
2023-04-16T21:49:06.778Z,100203.44
2023-04-16T21:52:14.185Z,100210.00
2023-04-16T21:55:16.951Z,100185.66
2023-04-16T21:58:19.298Z,100201.28
2023-04-16T22:01:22.132Z,100191.22
2023-04-16T22:04:26.470Z,100201.78
2023-04-16T22:07:28.969Z,100200.28
2023-04-16T22:10:31.567Z,100203.44
2023-04-16T22:13:33.892Z,100207.56
2023-04-16T22:16:36.675Z,100199.47
2023-04-16T22:19:39.463Z,100186.66
2023-04-16T22:22:42.603Z,100201.78
2023-04-16T22:25:45.076Z,100200.97
2023-04-16T22:28:47.673Z,100191.75
2023-04-16T22:31:50.148Z,100187.00
2023-04-16T22:34:52.775Z,100190.59
2023-04-16T22:37:55.127Z,100185.03
2023-04-16T22:40:57.751Z,100185.03
2023-04-16T22:44:00.133Z,100185.84
2023-04-16T22:47:02.860Z,100175.31
2023-04-16T22:50:06.327Z,100181.72
2023-04-16T22:53:08.964Z,100169.69
2023-04-16T22:56:11.884Z,100166.59
2023-04-16T22:59:14.540Z,100162.47
2023-04-16T23:02:17.378Z,100158.03
2023-04-16T23:05:20.290Z,100160.84
2023-04-16T23:08:22.676Z,100168.41
2023-04-16T23:11:25.436Z,100168.22
2023-04-16T23:14:27.774Z,100142.88
2023-04-16T23:17:30.408Z,100162.47
2023-04-16T23:20:32.726Z,100157.53
2023-04-16T23:23:35.321Z,100139.78
2023-04-16T23:26:37.605Z,100154.06
2023-04-16T23:29:40.203Z,100154.06
2023-04-16T23:32:42.500Z,100145.50
2023-04-16T23:35:46.692Z,100144.03
2023-04-16T23:38:48.956Z,100150.81
2023-04-16T23:41:51.538Z,100133.50
2023-04-16T23:44:53.853Z,100131.38
2023-04-16T23:47:56.501Z,100131.22
2023-04-16T23:50:59.261Z,100143.03
2023-04-16T23:54:02.000Z,100135.31
2023-04-16T23:57:04.445Z,100130.88
